KUCY/UCY METAR and TAF weather

Enter ICAO airport designator
Station Type Date Time Source
KUCY METAR 2020/06/05 08:50 UTC NOAA

KUCY 050850Z AUTO 00000KT 1 1/4SM BR 20/20 A2987 RMK A01 VIS 3/4V2 1/2


Station Type Date Time Source
KUCY Decoded METAR 2020/06/05 08:50 UTC NOAA

Station name not available
Jun 05, 2020 - 04:50 AM EDT / 2020.06.05 0850 UTC
Wind: Calm:0
Visibility: 1 1/4 mile(s):0
Weather: mist
Temperature: 68 F (20 C)
Dew Point: 68 F (20 C)
Relative Humidity: 100%
Pressure (altimeter): 29.87 in. Hg (1011 hPa)
ob: KUCY 050850Z AUTO 00000KT 1 1/4SM BR 20/20 A2987 RMK A01 VIS 3/4V2 1/2
cycle: 9

Station Type Date Time Source
KUCY TAF UTC NOAA

Error!

Example: see airport list